createdAt,value
2023-04-20T00:02:23.524Z,100356.53
2023-04-20T00:04:52.020Z,100348.88
2023-04-20T00:07:20.078Z,100355.75
2023-04-20T00:09:47.735Z,100343.56
2023-04-20T00:12:15.916Z,100343.44
2023-04-20T00:14:43.544Z,100336.16
2023-04-20T00:17:11.603Z,100338.97
2023-04-20T00:19:39.410Z,100333.69
2023-04-20T00:22:07.394Z,100332.72
2023-04-20T00:24:35.084Z,100335.81
2023-04-20T00:27:03.317Z,100332.72
2023-04-20T00:29:31.023Z,100330.97
2023-04-20T00:31:59.102Z,100341.91
2023-04-20T00:34:26.802Z,100338.56
2023-04-20T00:36:54.797Z,100354.06
2023-04-20T00:39:22.429Z,100358.97
2023-04-20T00:41:50.662Z,100359.84
2023-04-20T00:44:19.569Z,100365.06
2023-04-20T00:46:47.596Z,100375.34
2023-04-20T00:49:15.546Z,100378.72
2023-04-20T00:51:43.851Z,100381.56
2023-04-20T00:54:11.668Z,100386.16
2023-04-20T00:56:39.714Z,100383.31
2023-04-20T00:59:10.130Z,100378.38
2023-04-20T01:01:38.613Z,100360.63
2023-04-20T01:04:08.044Z,100362.25
2023-04-20T01:06:36.384Z,100359.91
2023-04-20T01:09:04.042Z,100348.53
2023-04-20T01:11:32.209Z,100349.16
2023-04-20T01:13:59.859Z,100344.97
2023-04-20T01:16:28.086Z,100333.56
2023-04-20T01:18:56.601Z,100329.59
2023-04-20T01:21:25.169Z,100324.34
2023-04-20T01:23:53.150Z,100307.81
2023-04-20T01:26:22.529Z,100306.41
2023-04-20T01:28:51.970Z,100302.50
2023-04-20T01:31:20.544Z,100295.59
2023-04-20T01:33:48.280Z,100298.19
2023-04-20T01:36:16.360Z,100290.00
2023-04-20T01:38:46.190Z,100288.34
2023-04-20T01:41:14.165Z,100292.78
2023-04-20T01:43:41.911Z,100295.84
2023-04-20T01:46:09.995Z,100290.03
2023-04-20T01:48:37.756Z,100295.56
2023-04-20T01:51:06.020Z,100300.75
2023-04-20T01:53:33.849Z,100302.72
2023-04-20T01:56:02.061Z,100308.41
2023-04-20T01:58:29.979Z,100308.53
2023-04-20T02:00:58.131Z,100301.78
2023-04-20T02:03:26.075Z,100306.75
2023-04-20T02:05:55.503Z,100312.13
2023-04-20T02:08:23.262Z,100307.78
2023-04-20T02:10:51.405Z,100311.34
2023-04-20T02:13:19.090Z,100311.28
2023-04-20T02:15:47.122Z,100314.84
2023-04-20T02:18:16.515Z,100306.25
2023-04-20T02:20:45.172Z,100305.88
2023-04-20T02:23:12.970Z,100305.53
2023-04-20T02:25:41.219Z,100298.78
2023-04-20T02:28:08.904Z,100302.97
2023-04-20T02:30:39.745Z,100299.28
2023-04-20T02:33:07.961Z,100302.84
2023-04-20T02:35:36.388Z,100298.88
2023-04-20T02:38:04.273Z,100302.91
2023-04-20T02:40:32.397Z,100305.53
2023-04-20T02:43:00.135Z,100301.44
2023-04-20T02:45:31.075Z,100306.41
2023-04-20T02:47:59.436Z,100302.97
2023-04-20T02:50:31.350Z,100297.50
2023-04-20T02:53:08.000Z,100290.00
2023-04-20T02:55:38.125Z,100286.25
2023-04-20T02:58:17.843Z,100281.28
2023-04-20T03:01:04.512Z,100283.50
2023-04-20T03:03:33.704Z,100292.41
2023-04-20T03:06:02.116Z,100285.94
2023-04-20T03:08:29.948Z,100285.00
2023-04-20T03:11:02.858Z,100280.88
2023-04-20T03:13:30.623Z,100288.47
2023-04-20T03:16:02.171Z,100289.38
2023-04-20T03:18:34.948Z,100280.97
2023-04-20T03:21:03.043Z,100279.25
2023-04-20T03:23:32.365Z,100270.88
2023-04-20T03:26:02.402Z,100273.81
2023-04-20T03:28:52.873Z,100280.31
2023-04-20T03:31:25.516Z,100280.13
2023-04-20T03:33:55.684Z,100284.38
2023-04-20T03:36:23.698Z,100279.28
2023-04-20T03:38:51.489Z,100276.38
2023-04-20T03:41:19.608Z,100278.72
2023-04-20T03:43:47.282Z,100274.09
2023-04-20T03:46:15.755Z,100274.25
2023-04-20T03:48:45.520Z,100273.47
2023-04-20T03:51:13.978Z,100276.09
2023-04-20T03:53:41.651Z,100268.94
2023-04-20T03:56:12.638Z,100276.75
2023-04-20T03:58:40.793Z,100281.06
2023-04-20T04:01:19.091Z,100274.53
2023-04-20T04:03:49.781Z,100273.19
2023-04-20T04:06:18.553Z,100280.97
2023-04-20T04:08:46.307Z,100274.91
2023-04-20T04:11:14.498Z,100273.28
2023-04-20T04:13:42.823Z,100267.16
2023-04-20T04:16:11.119Z,100271.41
2023-04-20T04:18:42.688Z,100276.16
2023-04-20T04:21:11.303Z,100287.56
2023-04-20T04:23:44.979Z,100279.53
2023-04-20T04:26:18.522Z,100291.94
2023-04-20T04:28:46.670Z,100288.69
2023-04-20T04:31:19.836Z,100286.84
2023-04-20T04:33:48.061Z,100298.91
2023-04-20T04:36:27.209Z,100297.25
2023-04-20T04:38:57.692Z,100303.88
2023-04-20T04:41:26.233Z,100293.09
2023-04-20T04:43:59.652Z,100292.09
2023-04-20T04:46:32.666Z,100296.44
2023-04-20T04:49:01.453Z,100304.91
2023-04-20T04:51:29.974Z,100291.59
2023-04-20T04:53:57.690Z,100289.47
2023-04-20T04:56:25.979Z,100271.47
2023-04-20T04:58:53.640Z,100265.88
2023-04-20T05:01:21.902Z,100286.50
2023-04-20T05:03:49.709Z,100294.09
2023-04-20T05:06:17.899Z,100302.88
2023-04-20T05:08:46.854Z,100298.63
2023-04-20T05:11:14.996Z,100291.38
2023-04-20T05:13:43.637Z,100286.28
2023-04-20T05:16:11.709Z,100282.22
2023-04-20T05:18:39.429Z,100292.72
2023-04-20T05:21:07.776Z,100297.69
2023-04-20T05:23:35.538Z,100300.25
2023-04-20T05:26:03.586Z,100308.63
2023-04-20T05:28:31.319Z,100308.44
2023-04-20T05:30:59.319Z,100309.47
2023-04-20T05:33:27.084Z,100318.47
2023-04-20T05:35:58.045Z,100305.78
2023-04-20T05:38:26.116Z,100313.09
2023-04-20T05:40:54.210Z,100305.72
2023-04-20T05:43:22.145Z,100313.97
2023-04-20T05:45:50.421Z,100306.88
2023-04-20T05:48:18.105Z,100313.16
2023-04-20T05:50:46.239Z,100316.75
2023-04-20T05:53:13.959Z,100315.78
2023-04-20T05:55:41.948Z,100325.78
2023-04-20T05:58:09.687Z,100323.41
2023-04-20T06:00:37.864Z,100325.50
2023-04-20T06:03:05.806Z,100328.13
2023-04-20T06:05:34.488Z,100328.53
2023-04-20T06:08:02.341Z,100331.94
2023-04-20T06:10:32.622Z,100320.09
2023-04-20T06:13:00.284Z,100325.94
2023-04-20T06:15:28.374Z,100322.25
2023-04-20T06:17:56.119Z,100317.97
2023-04-20T06:20:24.140Z,100318.91
2023-04-20T06:22:51.901Z,100319.94
2023-04-20T06:25:20.322Z,100320.59
2023-04-20T06:27:49.244Z,100325.84
2023-04-20T06:30:18.223Z,100326.22
2023-04-20T06:32:46.215Z,100325.84
2023-04-20T06:35:14.349Z,100331.31
2023-04-20T06:37:42.121Z,100327.34
2023-04-20T06:40:10.391Z,100329.47
2023-04-20T06:42:38.080Z,100331.47
2023-04-20T06:45:06.637Z,100340.53
2023-04-20T06:47:34.881Z,100336.63
2023-04-20T06:50:05.055Z,100343.53
2023-04-20T06:52:32.795Z,100338.31
2023-04-20T06:55:00.765Z,100341.38
2023-04-20T06:57:28.490Z,100344.44
2023-04-20T06:59:56.759Z,100343.00
2023-04-20T07:02:24.637Z,100346.00
2023-04-20T07:04:52.947Z,100341.91
2023-04-20T07:07:20.824Z,100342.88
2023-04-20T07:09:48.881Z,100339.44
2023-04-20T07:12:16.649Z,100339.31
2023-04-20T07:14:45.703Z,100345.59
2023-04-20T07:17:13.382Z,100342.88
2023-04-20T07:19:41.474Z,100344.63
2023-04-20T07:22:09.369Z,100342.06
2023-04-20T07:24:37.420Z,100339.22
2023-04-20T07:27:06.202Z,100343.09
2023-04-20T07:29:34.269Z,100343.44
2023-04-20T07:32:01.967Z,100340.47
2023-04-20T07:34:30.172Z,100348.66
2023-04-20T07:36:57.812Z,100350.19
2023-04-20T07:39:28.802Z,100355.72
2023-04-20T07:41:57.307Z,100356.19
2023-04-20T07:44:25.773Z,100361.53
2023-04-20T07:46:54.983Z,100364.59
2023-04-20T07:49:23.684Z,100368.69
2023-04-20T07:51:51.325Z,100358.31
2023-04-20T07:54:19.266Z,100365.03
2023-04-20T07:56:46.896Z,100362.09
2023-04-20T07:59:15.013Z,100360.03
2023-04-20T08:01:42.847Z,100357.13
2023-04-20T08:04:11.058Z,100367.28
2023-04-20T08:06:38.843Z,100361.09
2023-04-20T08:09:06.966Z,100362.34
2023-04-20T08:11:35.184Z,100366.38
2023-04-20T08:14:03.510Z,100367.69
2023-04-20T08:16:31.238Z,100359.16
2023-04-20T08:18:59.231Z,100365.31
2023-04-20T08:21:26.906Z,100361.00
2023-04-20T08:23:54.828Z,100354.25
2023-04-20T08:26:25.481Z,100354.69
2023-04-20T08:28:53.517Z,100356.75
2023-04-20T08:31:21.395Z,100357.81
2023-04-20T08:33:49.385Z,100362.13
2023-04-20T08:36:17.103Z,100358.47
2023-04-20T08:38:45.193Z,100365.06
2023-04-20T08:41:15.544Z,100360.56
2023-04-20T08:43:43.916Z,100363.84
2023-04-20T08:46:13.217Z,100367.66
2023-04-20T08:48:42.262Z,100363.81
2023-04-20T08:51:10.023Z,100362.00
2023-04-20T08:53:37.984Z,100354.31
2023-04-20T08:56:05.902Z,100357.19
2023-04-20T08:58:33.979Z,100350.06
2023-04-20T09:01:01.732Z,100340.31
2023-04-20T09:03:48.060Z,100352.41
2023-04-20T09:06:17.105Z,100349.41
2023-04-20T09:08:46.590Z,100346.91
2023-04-20T09:11:21.643Z,100348.84
2023-04-20T09:14:10.420Z,100346.16
2023-04-20T09:16:39.776Z,100346.16
2023-04-20T09:19:09.349Z,100345.88
2023-04-20T09:21:37.597Z,100348.16
2023-04-20T09:24:09.482Z,100340.22
2023-04-20T09:26:37.102Z,100341.91
2023-04-20T09:29:16.276Z,100349.31
2023-04-20T09:31:44.045Z,100347.59
2023-04-20T09:34:12.350Z,100339.66
2023-04-20T09:36:41.238Z,100347.91
2023-04-20T09:39:14.131Z,100346.78
2023-04-20T09:41:42.351Z,100348.94
2023-04-20T09:44:11.364Z,100349.25
2023-04-20T09:46:39.935Z,100355.00
2023-04-20T09:49:09.269Z,100358.97
2023-04-20T09:51:38.574Z,100361.13
2023-04-20T09:54:06.903Z,100352.13
2023-04-20T09:56:35.945Z,100372.81
2023-04-20T09:59:04.613Z,100359.63
2023-04-20T10:01:34.897Z,100362.31
2023-04-20T10:04:04.361Z,100366.03
2023-04-20T10:06:33.721Z,100360.97
2023-04-20T10:09:02.765Z,100372.97
2023-04-20T10:11:44.609Z,100376.53
2023-04-20T10:14:24.955Z,100377.31
2023-04-20T10:17:00.743Z,100374.75
2023-04-20T10:19:41.806Z,100374.81
2023-04-20T10:22:10.752Z,100369.50
2023-04-20T10:24:38.721Z,100376.31
2023-04-20T10:27:20.110Z,100382.09
2023-04-20T10:29:48.634Z,100379.97
2023-04-20T10:32:26.476Z,100383.63
2023-04-20T10:35:05.319Z,100374.94
2023-04-20T10:37:33.745Z,100382.56
2023-04-20T10:40:07.449Z,100389.72
2023-04-20T10:42:45.567Z,100386.72
2023-04-20T10:45:13.776Z,100391.28
2023-04-20T10:47:41.692Z,100394.31
2023-04-20T10:50:12.704Z,100392.66
2023-04-20T10:52:41.623Z,100397.22
2023-04-20T10:55:23.647Z,100409.38
2023-04-20T10:57:51.635Z,100407.47
2023-04-20T11:00:20.778Z,100396.78
2023-04-20T11:02:50.438Z,100406.34
2023-04-20T11:05:22.563Z,100387.31
2023-04-20T11:07:56.374Z,100390.03
2023-04-20T11:10:26.226Z,100381.84
2023-04-20T11:12:53.957Z,100376.75
2023-04-20T11:15:30.952Z,100372.41
2023-04-20T11:18:07.433Z,100362.72
2023-04-20T11:20:36.761Z,100352.09
2023-04-20T11:23:06.183Z,100347.25
2023-04-20T11:25:34.454Z,100353.53
2023-04-20T11:28:11.233Z,100348.22
2023-04-20T11:30:41.618Z,100360.22
2023-04-20T11:33:10.354Z,100350.84
2023-04-20T11:35:39.378Z,100355.38
2023-04-20T11:38:07.751Z,100350.75
2023-04-20T11:40:36.101Z,100347.41
2023-04-20T11:43:05.079Z,100345.75
2023-04-20T11:45:36.888Z,100343.66
2023-04-20T11:48:05.610Z,100349.13
2023-04-20T11:50:33.909Z,100358.09
2023-04-20T11:53:02.694Z,100357.97
2023-04-20T11:55:30.750Z,100356.28
2023-04-20T11:57:58.379Z,100351.56
2023-04-20T12:00:26.555Z,100359.66
2023-04-20T12:02:54.413Z,100355.06
2023-04-20T12:05:22.648Z,100364.44
2023-04-20T12:07:50.907Z,100354.06
2023-04-20T12:10:18.851Z,100360.63
2023-04-20T12:12:46.564Z,100356.31
2023-04-20T12:15:14.560Z,100356.41
2023-04-20T12:17:42.167Z,100353.47
2023-04-20T12:20:12.539Z,100356.78
2023-04-20T12:22:40.278Z,100353.53
2023-04-20T12:25:08.553Z,100350.00
2023-04-20T12:27:36.222Z,100354.06
2023-04-20T12:30:04.633Z,100342.97
2023-04-20T12:32:32.357Z,100352.50
2023-04-20T12:35:00.626Z,100343.47
2023-04-20T12:37:28.341Z,100340.56
2023-04-20T12:39:57.820Z,100340.72
2023-04-20T12:42:25.481Z,100338.50
2023-04-20T12:44:56.895Z,100328.53
2023-04-20T12:47:24.611Z,100330.72
2023-04-20T12:49:52.655Z,100328.66
2023-04-20T12:52:20.643Z,100322.84
2023-04-20T12:54:48.999Z,100324.91
2023-04-20T12:57:17.214Z,100315.41
2023-04-20T12:59:45.205Z,100318.28
2023-04-20T13:02:13.153Z,100316.38
2023-04-20T13:04:41.607Z,100314.88
2023-04-20T13:07:09.352Z,100306.34
2023-04-20T13:09:37.452Z,100306.09
2023-04-20T13:12:05.452Z,100305.13
2023-04-20T13:14:34.609Z,100305.47
2023-04-20T13:17:02.480Z,100301.03
2023-04-20T13:19:31.348Z,100298.78
2023-04-20T13:21:59.589Z,100298.50
2023-04-20T13:24:27.659Z,100300.41
2023-04-20T13:26:59.249Z,100298.84
2023-04-20T13:29:27.593Z,100304.09
2023-04-20T13:31:55.327Z,100308.69
2023-04-20T13:34:23.757Z,100308.09
2023-04-20T13:36:52.024Z,100311.91
2023-04-20T13:39:21.081Z,100296.56
2023-04-20T13:41:49.690Z,100301.66
2023-04-20T13:44:17.998Z,100300.66
2023-04-20T13:46:46.909Z,100304.66
2023-04-20T13:49:17.017Z,100304.44
2023-04-20T13:51:44.762Z,100291.50
2023-04-20T13:54:12.921Z,100297.75
2023-04-20T13:56:40.720Z,100303.34
2023-04-20T13:59:08.881Z,100299.66
2023-04-20T14:01:37.073Z,100298.31
2023-04-20T14:04:05.561Z,100300.28
2023-04-20T14:06:33.377Z,100299.22
2023-04-20T14:09:01.439Z,100291.06
2023-04-20T14:11:29.148Z,100301.13
2023-04-20T14:13:57.515Z,100306.75
2023-04-20T14:16:26.006Z,100300.94
2023-04-20T14:18:54.262Z,100297.84
2023-04-20T14:21:22.054Z,100303.44
2023-04-20T14:23:53.824Z,100304.97
2023-04-20T14:26:21.519Z,100304.22
2023-04-20T14:28:49.641Z,100300.75
2023-04-20T14:31:17.416Z,100299.94
2023-04-20T14:33:45.565Z,100313.47
2023-04-20T14:36:13.400Z,100314.63
2023-04-20T14:38:41.577Z,100303.50
2023-04-20T14:41:09.305Z,100306.19
2023-04-20T14:43:37.908Z,100316.47
2023-04-20T14:46:05.951Z,100320.66
2023-04-20T14:48:35.892Z,100307.53
2023-04-20T14:51:03.833Z,100314.47
2023-04-20T14:53:33.130Z,100319.06
2023-04-20T14:56:01.320Z,100315.44
2023-04-20T14:58:29.620Z,100316.78
2023-04-20T15:00:57.477Z,100310.63
2023-04-20T15:03:25.844Z,100317.03
2023-04-20T15:05:53.866Z,100318.97
2023-04-20T15:08:23.329Z,100304.13
2023-04-20T15:10:55.261Z,100307.00
2023-04-20T15:13:23.951Z,100318.59
2023-04-20T15:15:54.101Z,100308.88
2023-04-20T15:18:23.142Z,100306.66
2023-04-20T15:20:51.360Z,100322.03
2023-04-20T15:23:19.936Z,100301.84
2023-04-20T15:25:47.715Z,100304.53
2023-04-20T15:28:15.923Z,100317.41
2023-04-20T15:30:44.490Z,100312.91
2023-04-20T15:33:12.647Z,100303.09
2023-04-20T15:35:40.648Z,100306.03
2023-04-20T15:38:09.442Z,100319.84
2023-04-20T15:40:38.864Z,100306.91
2023-04-20T15:43:07.186Z,100309.63
2023-04-20T15:45:35.009Z,100311.66
2023-04-20T15:48:03.249Z,100308.47
2023-04-20T15:50:31.174Z,100308.97
2023-04-20T15:52:59.284Z,100309.06
2023-04-20T15:55:27.130Z,100309.13
2023-04-20T15:57:58.302Z,100322.25
2023-04-20T16:00:26.220Z,100321.28
2023-04-20T16:02:54.418Z,100313.44
2023-04-20T16:05:22.354Z,100312.88
2023-04-20T16:07:50.454Z,100316.38
2023-04-20T16:10:18.261Z,100321.38
2023-04-20T16:12:46.720Z,100321.13
2023-04-20T16:15:14.521Z,100325.09
2023-04-20T16:17:42.625Z,100326.09
2023-04-20T16:20:10.543Z,100333.34
2023-04-20T16:22:38.601Z,100329.38
2023-04-20T16:25:06.725Z,100326.75
2023-04-20T16:27:34.714Z,100323.28
2023-04-20T16:30:02.397Z,100327.16
2023-04-20T16:32:30.942Z,100323.00
2023-04-20T16:34:58.714Z,100324.53
2023-04-20T16:37:26.883Z,100323.78
2023-04-20T16:39:54.561Z,100323.16
2023-04-20T16:42:22.635Z,100328.97
2023-04-20T16:44:50.564Z,100324.34
2023-04-20T16:47:18.555Z,100318.47
2023-04-20T16:49:47.216Z,100326.72
2023-04-20T16:52:15.283Z,100327.22
2023-04-20T16:54:42.955Z,100330.25
2023-04-20T16:57:11.220Z,100330.53
2023-04-20T16:59:39.042Z,100334.81
2023-04-20T17:02:07.848Z,100330.47
2023-04-20T17:04:36.238Z,100328.81
2023-04-20T17:07:04.379Z,100331.59
2023-04-20T17:09:32.287Z,100328.47
2023-04-20T17:12:01.564Z,100336.66
2023-04-20T17:14:30.445Z,100338.22
2023-04-20T17:16:58.751Z,100344.72
2023-04-20T17:19:26.549Z,100358.25
2023-04-20T17:21:54.630Z,100367.84
2023-04-20T17:24:22.468Z,100372.56
2023-04-20T17:26:50.630Z,100377.13
2023-04-20T17:29:18.459Z,100382.56
2023-04-20T17:31:46.939Z,100399.59
2023-04-20T17:34:14.639Z,100414.75
2023-04-20T17:36:42.664Z,100420.03
2023-04-20T17:39:10.464Z,100424.38
2023-04-20T17:41:38.523Z,100422.84
2023-04-20T17:44:06.283Z,100437.28
2023-04-20T17:46:34.329Z,100429.25
2023-04-20T17:49:02.062Z,100440.72
2023-04-20T17:51:30.141Z,100446.63
2023-04-20T17:53:57.932Z,100444.41
2023-04-20T17:56:26.042Z,100453.19
2023-04-20T17:58:55.094Z,100455.53
2023-04-20T18:01:24.199Z,100462.28
2023-04-20T18:03:52.225Z,100465.44
2023-04-20T18:06:20.554Z,100465.69
2023-04-20T18:08:48.410Z,100464.66
2023-04-20T18:11:16.952Z,100462.41
2023-04-20T18:13:44.894Z,100462.22
2023-04-20T18:16:12.955Z,100461.28
2023-04-20T18:18:40.834Z,100455.16
2023-04-20T18:21:10.006Z,100448.94
2023-04-20T18:23:37.944Z,100441.06
2023-04-20T18:26:06.013Z,100444.88
2023-04-20T18:28:33.758Z,100439.16
2023-04-20T18:31:02.802Z,100445.91
2023-04-20T18:33:30.564Z,100444.88
2023-04-20T18:35:58.635Z,100445.72
2023-04-20T18:38:26.904Z,100451.69
2023-04-20T18:40:55.033Z,100447.84
2023-04-20T18:43:22.873Z,100454.09
2023-04-20T18:45:50.887Z,100458.56
2023-04-20T18:48:18.836Z,100452.88
2023-04-20T18:50:48.077Z,100458.91
2023-04-20T18:53:16.150Z,100465.84
2023-04-20T18:55:44.259Z,100466.28
2023-04-20T18:58:12.000Z,100465.06
2023-04-20T19:00:40.935Z,100462.22
2023-04-20T19:03:08.868Z,100463.31
2023-04-20T19:05:38.114Z,100458.59
2023-04-20T19:08:05.981Z,100456.28
2023-04-20T19:10:34.055Z,100462.50
2023-04-20T19:13:01.810Z,100457.53
2023-04-20T19:15:29.907Z,100459.44
2023-04-20T19:17:57.786Z,100457.47
2023-04-20T19:20:26.387Z,100459.91
2023-04-20T19:22:54.176Z,100467.94
2023-04-20T19:25:22.268Z,100457.97
2023-04-20T19:27:49.986Z,100456.00
2023-04-20T19:30:18.016Z,100459.28
2023-04-20T19:32:45.872Z,100465.75
2023-04-20T19:35:14.083Z,100466.06
2023-04-20T19:37:41.715Z,100470.97
2023-04-20T19:40:09.742Z,100468.41
2023-04-20T19:42:37.406Z,100469.31
2023-04-20T19:45:05.750Z,100472.78
2023-04-20T19:47:33.494Z,100467.59
2023-04-20T19:50:03.605Z,100471.03
2023-04-20T19:52:32.717Z,100468.66
2023-04-20T19:55:01.679Z,100468.31
2023-04-20T19:57:29.409Z,100476.97
2023-04-20T19:59:57.588Z,100477.47
2023-04-20T20:02:25.404Z,100474.78
2023-04-20T20:04:54.564Z,100472.22
2023-04-20T20:07:22.200Z,100482.44
2023-04-20T20:09:50.172Z,100473.31
2023-04-20T20:12:17.788Z,100477.59
2023-04-20T20:14:45.766Z,100485.38
2023-04-20T20:17:13.909Z,100483.63
2023-04-20T20:19:45.135Z,100492.22
2023-04-20T20:22:13.321Z,100494.22
2023-04-20T20:24:42.744Z,100484.03
2023-04-20T20:27:11.215Z,100487.38
2023-04-20T20:29:39.490Z,100471.38
2023-04-20T20:32:07.139Z,100473.56
2023-04-20T20:34:35.349Z,100475.06
2023-04-20T20:37:04.659Z,100476.44
2023-04-20T20:39:32.654Z,100484.59
2023-04-20T20:42:02.332Z,100475.78
2023-04-20T20:44:33.392Z,100475.13
2023-04-20T20:47:01.186Z,100480.31
2023-04-20T20:49:29.255Z,100490.50
2023-04-20T20:51:56.890Z,100489.31
2023-04-20T20:54:24.890Z,100495.28
2023-04-20T20:56:52.537Z,100491.03
2023-04-20T20:59:20.694Z,100485.47
2023-04-20T21:01:48.540Z,100483.94
2023-04-20T21:04:16.546Z,100484.78
2023-04-20T21:06:44.201Z,100475.56
2023-04-20T21:09:12.484Z,100472.91
2023-04-20T21:11:40.095Z,100474.19
2023-04-20T21:14:08.246Z,100477.91
2023-04-20T21:16:35.975Z,100471.50
2023-04-20T21:19:04.179Z,100463.84
2023-04-20T21:21:33.242Z,100455.47
2023-04-20T21:24:01.400Z,100473.09
2023-04-20T21:26:34.988Z,100470.50
2023-04-20T21:29:03.463Z,100474.19
2023-04-20T21:31:31.725Z,100471.38
2023-04-20T21:34:00.152Z,100466.78
2023-04-20T21:36:28.087Z,100486.13
2023-04-20T21:38:56.097Z,100476.66
2023-04-20T21:41:23.858Z,100482.25
2023-04-20T21:43:52.557Z,100471.94
2023-04-20T21:46:20.287Z,100472.47
2023-04-20T21:48:48.267Z,100474.75
2023-04-20T21:51:16.414Z,100468.53
2023-04-20T21:53:44.920Z,100470.44
2023-04-20T21:56:12.852Z,100469.63
2023-04-20T21:58:41.057Z,100468.19
2023-04-20T22:01:08.865Z,100470.97
2023-04-20T22:03:38.087Z,100470.81
2023-04-20T22:06:06.740Z,100474.53
2023-04-20T22:08:36.636Z,100474.63
2023-04-20T22:11:04.430Z,100483.38
2023-04-20T22:13:32.778Z,100482.25
2023-04-20T22:16:00.511Z,100483.91
2023-04-20T22:18:28.576Z,100483.31
2023-04-20T22:20:56.237Z,100484.22
2023-04-20T22:23:24.616Z,100490.34
2023-04-20T22:25:52.353Z,100496.59
2023-04-20T22:28:20.393Z,100487.13
2023-04-20T22:30:48.088Z,100493.81
2023-04-20T22:33:16.950Z,100494.69
2023-04-20T22:35:44.674Z,100495.19
2023-04-20T22:38:12.781Z,100486.34
2023-04-20T22:40:40.456Z,100493.97
2023-04-20T22:43:08.450Z,100488.94
2023-04-20T22:45:36.131Z,100495.56
2023-04-20T22:48:04.338Z,100493.91
2023-04-20T22:50:31.976Z,100491.22
2023-04-20T22:53:00.398Z,100486.53
2023-04-20T22:55:28.125Z,100482.72
2023-04-20T22:57:56.310Z,100489.38
2023-04-20T23:00:23.957Z,100486.44
2023-04-20T23:02:53.219Z,100486.25
2023-04-20T23:05:21.123Z,100490.09
2023-04-20T23:07:49.503Z,100480.16
2023-04-20T23:10:17.262Z,100487.66
2023-04-20T23:12:47.398Z,100482.09
2023-04-20T23:15:15.124Z,100484.00
2023-04-20T23:17:43.348Z,100478.53
2023-04-20T23:20:14.017Z,100476.34
2023-04-20T23:22:42.276Z,100468.22
2023-04-20T23:25:11.232Z,100471.75
2023-04-20T23:27:39.336Z,100481.56
2023-04-20T23:30:07.353Z,100479.00
2023-04-20T23:32:35.902Z,100477.66
2023-04-20T23:35:03.808Z,100474.66
2023-04-20T23:37:31.820Z,100474.22
2023-04-20T23:39:59.543Z,100473.44
2023-04-20T23:42:27.617Z,100466.50
2023-04-20T23:44:55.285Z,100469.19
2023-04-20T23:47:23.437Z,100462.06
2023-04-20T23:49:51.252Z,100464.75
2023-04-20T23:52:19.383Z,100463.59
2023-04-20T23:54:47.101Z,100467.53
2023-04-20T23:57:15.131Z,100458.84
2023-04-20T23:59:42.845Z,100452.16
